createdAt,value
2022-10-14T00:01:24.683Z,9.40
2022-10-14T00:03:53.466Z,12.83
2022-10-14T00:06:24.857Z,16.17
2022-10-14T00:08:55.479Z,17.20
2022-10-14T00:11:28.329Z,9.50
2022-10-14T00:14:01.441Z,11.40
2022-10-14T00:16:34.747Z,13.20
2022-10-14T00:19:04.455Z,16.07
2022-10-14T00:21:34.073Z,16.77
2022-10-14T00:24:02.350Z,11.77
2022-10-14T00:26:34.015Z,13.20
2022-10-14T00:29:03.881Z,10.27
2022-10-14T00:31:32.831Z,20.67
2022-10-14T00:34:01.603Z,15.43
2022-10-14T00:36:29.942Z,14.13
2022-10-14T00:38:58.210Z,14.37
2022-10-14T00:41:32.158Z,14.40
2022-10-14T00:44:04.635Z,17.03
2022-10-14T00:46:39.205Z,10.83
2022-10-14T00:49:31.842Z,17.03
2022-10-14T00:52:08.183Z,14.93
2022-10-14T00:54:50.953Z,14.17
2022-10-14T00:57:20.716Z,16.50
2022-10-14T00:59:49.490Z,13.67
2022-10-14T01:02:18.621Z,13.73
2022-10-14T01:04:46.592Z,12.47
2022-10-14T01:07:40.293Z,18.43
2022-10-14T01:10:33.162Z,14.77
2022-10-14T01:13:25.441Z,19.77
2022-10-14T01:16:12.374Z,16.97
2022-10-14T01:19:07.693Z,17.63
2022-10-14T01:21:47.286Z,18.90
2022-10-14T01:24:19.028Z,16.10
2022-10-14T01:27:04.951Z,17.30
2022-10-14T01:29:54.258Z,17.47
2022-10-14T01:32:25.014Z,16.70
2022-10-14T01:35:12.120Z,14.63
2022-10-14T01:37:49.106Z,19.47
2022-10-14T01:40:33.628Z,19.03
2022-10-14T01:43:02.935Z,23.43
2022-10-14T01:45:33.909Z,13.57
2022-10-14T01:48:05.245Z,18.47
2022-10-14T01:50:36.222Z,24.17
2022-10-14T01:53:14.765Z,20.20
2022-10-14T01:55:46.243Z,14.53
2022-10-14T01:58:18.051Z,18.27
2022-10-14T02:00:47.968Z,14.93
2022-10-14T02:03:16.325Z,17.47
2022-10-14T02:05:51.416Z,17.00
2022-10-14T02:08:56.253Z,14.33
2022-10-14T02:11:26.201Z,15.10
2022-10-14T02:14:12.435Z,16.77
2022-10-14T02:17:19.771Z,16.07
2022-10-14T02:20:21.262Z,15.57
2022-10-14T02:22:54.814Z,14.87
2022-10-14T02:25:27.458Z,16.33
2022-10-14T02:27:55.231Z,16.17
2022-10-14T02:30:22.870Z,18.57
2022-10-14T02:32:52.828Z,14.60
2022-10-14T02:35:24.254Z,17.13
2022-10-14T02:37:55.258Z,16.73
2022-10-14T02:40:33.435Z,19.30
2022-10-14T02:43:01.936Z,15.53
2022-10-14T02:45:30.289Z,19.13
2022-10-14T02:47:57.845Z,13.03
2022-10-14T02:50:25.947Z,12.73
2022-10-14T02:52:54.106Z,15.87
2022-10-14T02:55:22.315Z,17.57
2022-10-14T02:57:50.943Z,15.33
2022-10-14T03:00:20.674Z,16.43
2022-10-14T03:02:51.230Z,20.03
2022-10-14T03:05:20.305Z,16.43
2022-10-14T03:07:49.106Z,19.17
2022-10-14T03:10:17.728Z,14.90
2022-10-14T03:12:46.114Z,12.50
2022-10-14T03:15:15.085Z,16.17
2022-10-14T03:17:43.778Z,11.77
2022-10-14T03:20:12.172Z,13.83
2022-10-14T03:22:39.981Z,14.00
2022-10-14T03:25:07.430Z,10.10
2022-10-14T03:27:36.467Z,11.83
2022-10-14T03:30:05.958Z,14.20
2022-10-14T03:32:34.205Z,11.10
2022-10-14T03:35:02.898Z,11.67
2022-10-14T03:37:31.126Z,13.40
2022-10-14T03:39:59.395Z,12.50
2022-10-14T03:42:28.677Z,13.67
2022-10-14T03:44:56.825Z,10.37
2022-10-14T03:47:25.417Z,15.87
2022-10-14T03:49:54.048Z,10.43
2022-10-14T03:52:22.751Z,14.57
2022-10-14T03:54:51.553Z,12.07
2022-10-14T03:57:19.870Z,12.93
2022-10-14T03:59:47.506Z,9.73
2022-10-14T04:02:15.043Z,12.03
2022-10-14T04:04:42.563Z,9.67
2022-10-14T04:07:10.037Z,11.20
2022-10-14T04:09:56.172Z,7.90
2022-10-14T04:12:41.424Z,10.03
2022-10-14T04:15:10.168Z,11.17
2022-10-14T04:17:45.962Z,14.00
2022-10-14T04:20:15.165Z,8.50
2022-10-14T04:22:44.497Z,14.40
2022-10-14T04:25:12.956Z,13.10
2022-10-14T04:27:40.570Z,9.03
2022-10-14T04:30:10.465Z,9.77
2022-10-14T04:32:39.253Z,11.20
2022-10-14T04:35:07.393Z,9.30
2022-10-14T04:37:35.999Z,13.43
2022-10-14T04:40:05.664Z,13.90
2022-10-14T04:42:33.973Z,9.00
2022-10-14T04:45:03.634Z,10.10
2022-10-14T04:47:31.877Z,10.47
2022-10-14T04:49:59.490Z,11.47
2022-10-14T04:52:28.509Z,10.23
2022-10-14T04:54:57.376Z,11.93
2022-10-14T04:57:26.009Z,10.33
2022-10-14T04:59:53.587Z,16.03
2022-10-14T05:02:22.868Z,10.50
2022-10-14T05:04:51.699Z,12.47
2022-10-14T05:07:20.549Z,9.57
2022-10-14T05:09:51.272Z,8.60
2022-10-14T05:12:23.455Z,10.10
2022-10-14T05:14:51.337Z,12.77
2022-10-14T05:17:20.210Z,14.97
2022-10-14T05:19:49.613Z,13.67
2022-10-14T05:22:17.111Z,9.77
2022-10-14T05:24:45.747Z,16.53
2022-10-14T05:27:13.956Z,10.77
2022-10-14T05:29:42.190Z,9.37
2022-10-14T05:32:10.934Z,10.83
2022-10-14T05:34:39.759Z,8.23
2022-10-14T05:37:07.395Z,8.13
2022-10-14T05:39:34.218Z,9.57
2022-10-14T05:42:03.362Z,12.40
2022-10-14T05:44:31.627Z,10.33
2022-10-14T05:47:00.484Z,10.03
2022-10-14T05:49:30.061Z,8.57
2022-10-14T05:51:57.654Z,8.37
2022-10-14T05:54:25.930Z,10.17
2022-10-14T05:56:54.474Z,15.73
2022-10-14T05:59:23.364Z,13.83
2022-10-14T06:01:51.152Z,8.73
2022-10-14T06:04:21.247Z,12.90
2022-10-14T06:06:50.154Z,10.73
2022-10-14T06:09:20.108Z,9.67
2022-10-14T06:11:47.884Z,8.60
2022-10-14T06:14:16.077Z,9.17
2022-10-14T06:16:42.966Z,9.90
2022-10-14T06:19:11.802Z,11.30
2022-10-14T06:21:40.157Z,14.73
2022-10-14T06:24:09.002Z,10.07
2022-10-14T06:26:36.836Z,10.90
2022-10-14T06:29:05.250Z,7.83
2022-10-14T06:31:33.021Z,9.70
2022-10-14T06:34:05.871Z,9.50
2022-10-14T06:36:33.937Z,8.67
2022-10-14T06:39:04.529Z,7.67
2022-10-14T06:41:33.039Z,11.47
2022-10-14T06:44:01.588Z,9.13
2022-10-14T06:46:31.385Z,11.73
2022-10-14T06:48:59.657Z,9.13
2022-10-14T06:51:28.541Z,12.30
2022-10-14T06:53:57.595Z,10.13
2022-10-14T06:56:25.781Z,10.30
2022-10-14T06:58:56.270Z,10.67
2022-10-14T07:01:25.936Z,10.37
2022-10-14T07:03:56.745Z,16.37
2022-10-14T07:06:25.206Z,10.07
2022-10-14T07:08:54.299Z,14.33
2022-10-14T07:11:22.605Z,15.20
2022-10-14T07:13:51.683Z,14.03
2022-10-14T07:16:19.895Z,14.17
2022-10-14T07:18:48.064Z,16.43
2022-10-14T07:21:16.237Z,13.43
2022-10-14T07:23:44.401Z,13.23
2022-10-14T07:26:12.983Z,10.30
2022-10-14T07:28:40.789Z,16.90
2022-10-14T07:31:11.397Z,15.33
2022-10-14T07:33:40.315Z,11.07
2022-10-14T07:36:16.152Z,17.80
2022-10-14T07:38:48.342Z,14.77
2022-10-14T07:41:19.781Z,13.00
2022-10-14T07:43:50.517Z,11.53
2022-10-14T07:46:29.366Z,11.57
2022-10-14T07:49:08.654Z,8.43
2022-10-14T07:51:36.438Z,12.10
2022-10-14T07:54:09.853Z,11.93
2022-10-14T07:56:38.779Z,9.90
2022-10-14T07:59:06.461Z,10.67
2022-10-14T08:01:34.193Z,11.83
2022-10-14T08:04:02.409Z,10.43
2022-10-14T08:06:30.252Z,8.87
2022-10-14T08:08:57.776Z,12.27
2022-10-14T08:11:27.871Z,10.90
2022-10-14T08:13:58.540Z,10.37
2022-10-14T08:16:28.465Z,12.97
2022-10-14T08:19:00.301Z,8.70
2022-10-14T08:21:28.250Z,11.30
2022-10-14T08:23:56.272Z,8.03
2022-10-14T08:26:36.309Z,9.03
2022-10-14T08:29:06.957Z,9.23
2022-10-14T08:31:34.702Z,8.00
2022-10-14T08:34:02.196Z,9.07
2022-10-14T08:36:29.914Z,12.77
2022-10-14T08:38:58.930Z,9.97
2022-10-14T08:41:42.561Z,10.83
2022-10-14T08:44:25.985Z,9.47
2022-10-14T08:47:00.241Z,8.23
2022-10-14T08:49:43.702Z,8.07
2022-10-14T08:52:23.693Z,9.87
2022-10-14T08:54:58.966Z,7.27
2022-10-14T08:57:39.117Z,8.27
2022-10-14T09:00:10.110Z,8.67
2022-10-14T09:02:45.899Z,10.17
2022-10-14T09:05:18.562Z,10.73
2022-10-14T09:07:48.871Z,9.77
2022-10-14T09:10:40.493Z,11.60
2022-10-14T09:13:34.485Z,9.53
2022-10-14T09:16:08.583Z,9.77
2022-10-14T09:18:40.319Z,8.33
2022-10-14T09:24:37.799Z,6.83
2022-10-14T09:27:16.321Z,11.87
2022-10-14T09:30:02.091Z,10.97
2022-10-14T09:32:41.378Z,12.00
2022-10-14T09:35:17.060Z,6.50
2022-10-14T09:37:46.105Z,6.73
2022-10-14T09:40:13.719Z,7.23
2022-10-14T09:43:24.154Z,9.43
2022-10-14T09:46:10.980Z,9.57
2022-10-14T09:48:52.488Z,7.93
2022-10-14T09:51:27.754Z,7.20
2022-10-14T09:54:01.965Z,8.30
2022-10-14T09:56:41.937Z,11.23
2022-10-14T09:59:20.447Z,8.20
2022-10-14T10:01:51.846Z,9.20
2022-10-14T10:04:47.542Z,10.47
2022-10-14T10:07:33.869Z,5.13
2022-10-14T10:10:16.329Z,9.77
2022-10-14T10:12:47.081Z,9.27
2022-10-14T10:15:23.935Z,8.53
2022-10-14T10:17:52.826Z,9.00
2022-10-14T10:20:33.578Z,11.47
2022-10-14T10:23:37.523Z,8.87
2022-10-14T10:26:25.939Z,11.53
2022-10-14T10:28:57.434Z,9.63
2022-10-14T10:31:56.840Z,8.13
2022-10-14T10:34:51.846Z,4.90
2022-10-14T10:37:30.278Z,6.33
2022-10-14T10:40:25.658Z,8.87
2022-10-14T10:43:18.684Z,6.47
2022-10-14T10:45:58.624Z,8.03
2022-10-14T10:49:08.131Z,7.80
2022-10-14T10:51:57.086Z,11.60
2022-10-14T10:54:44.976Z,8.20
2022-10-14T10:57:38.456Z,6.70
2022-10-14T11:00:13.456Z,8.80
2022-10-14T11:02:41.135Z,8.30
2022-10-14T11:05:51.484Z,8.63
2022-10-14T11:08:43.461Z,5.50
2022-10-14T11:11:42.581Z,11.70
2022-10-14T11:14:37.454Z,7.77
2022-10-14T11:17:28.769Z,8.60
2022-10-14T11:20:13.771Z,9.30
2022-10-14T11:23:06.706Z,9.43
2022-10-14T11:25:51.863Z,6.90
2022-10-14T11:28:51.305Z,9.43
2022-10-14T11:31:47.153Z,7.40
2022-10-14T11:34:24.031Z,8.37
2022-10-14T11:37:34.269Z,7.00
2022-10-14T11:40:22.073Z,10.77
2022-10-14T11:43:09.148Z,7.47
2022-10-14T11:45:49.781Z,8.20
2022-10-14T11:48:34.588Z,10.33
2022-10-14T11:51:24.515Z,8.13
2022-10-14T11:54:05.286Z,7.30
2022-10-14T11:56:53.108Z,8.40
2022-10-14T12:00:00.179Z,9.13
2022-10-14T12:02:39.279Z,8.53
2022-10-14T12:05:17.387Z,6.50
2022-10-14T12:08:05.362Z,12.70
2022-10-14T12:10:38.806Z,7.87
2022-10-14T12:13:13.768Z,6.70
2022-10-14T12:15:48.945Z,6.13
2022-10-14T12:18:19.342Z,6.83
2022-10-14T12:20:59.067Z,6.00
2022-10-14T12:23:39.487Z,6.00
2022-10-14T12:26:22.461Z,8.80
2022-10-14T12:28:52.839Z,5.47
2022-10-14T12:31:36.761Z,8.93
2022-10-14T12:34:11.190Z,5.90
2022-10-14T12:36:51.512Z,6.97
2022-10-14T12:39:28.877Z,10.27
2022-10-14T12:42:05.844Z,7.60
2022-10-14T12:44:35.878Z,8.00
2022-10-14T12:47:04.981Z,5.07
2022-10-14T12:49:35.732Z,5.67
2022-10-14T12:52:09.202Z,6.90
2022-10-14T12:54:45.974Z,5.83
2022-10-14T12:57:30.000Z,10.07
2022-10-14T13:00:01.226Z,6.67
2022-10-14T13:02:35.287Z,8.30
2022-10-14T13:05:10.746Z,10.73
2022-10-14T13:07:46.839Z,11.43
2022-10-14T13:10:45.882Z,8.83
2022-10-14T13:13:47.882Z,11.40
2022-10-14T13:16:25.307Z,11.57
2022-10-14T13:18:58.405Z,7.33
2022-10-14T13:21:36.437Z,8.97
2022-10-14T13:24:23.468Z,9.83
2022-10-14T13:26:55.505Z,7.47
2022-10-14T13:29:33.088Z,8.67
2022-10-14T13:32:30.814Z,8.80
2022-10-14T13:35:17.878Z,4.67
2022-10-14T13:37:58.206Z,9.10
2022-10-14T13:40:38.929Z,5.27
2022-10-14T13:43:15.319Z,8.43
2022-10-14T13:45:52.986Z,6.60
2022-10-14T13:48:30.688Z,6.97
2022-10-14T13:51:36.163Z,5.80
2022-10-14T13:54:32.970Z,7.63
2022-10-14T13:57:53.508Z,7.70
2022-10-14T14:02:56.707Z,6.30
2022-10-14T14:05:36.065Z,11.13
2022-10-14T14:08:34.896Z,10.07
2022-10-14T14:11:16.208Z,6.70
2022-10-14T14:14:01.373Z,11.23
2022-10-14T14:16:35.799Z,7.90
2022-10-14T14:19:08.717Z,9.27
2022-10-14T14:21:38.398Z,7.83
2022-10-14T14:24:17.646Z,7.80
2022-10-14T14:26:46.735Z,12.17
2022-10-14T14:29:18.303Z,9.43
2022-10-14T14:32:05.437Z,8.50
2022-10-14T14:34:35.846Z,9.97
2022-10-14T14:37:34.357Z,8.00
2022-10-14T14:40:16.803Z,11.60
2022-10-14T14:42:48.252Z,8.50
2022-10-14T14:45:29.191Z,13.73
2022-10-14T14:48:01.963Z,9.53
2022-10-14T14:50:43.017Z,8.53
2022-10-14T14:53:18.798Z,11.20
2022-10-14T14:56:00.526Z,8.43
2022-10-14T14:58:34.889Z,9.33
2022-10-14T15:01:03.871Z,13.27
2022-10-14T15:04:13.527Z,11.03
2022-10-14T15:06:36.829Z,13.03
2022-10-14T15:09:13.705Z,10.93
2022-10-14T15:11:54.855Z,10.13
2022-10-14T15:14:34.950Z,9.43
2022-10-14T15:17:07.057Z,14.50
2022-10-14T15:19:38.090Z,11.10
2022-10-14T15:22:29.497Z,10.10
2022-10-14T15:25:23.307Z,10.83
2022-10-14T15:27:54.855Z,12.60
2022-10-14T15:30:27.830Z,12.80
2022-10-14T15:33:20.358Z,7.87
2022-10-14T15:36:02.613Z,9.13
2022-10-14T15:41:04.109Z,14.40
2022-10-14T15:43:34.657Z,11.33
2022-10-14T15:46:20.600Z,13.77
2022-10-14T15:48:52.381Z,12.00
2022-10-14T15:51:26.154Z,10.03
2022-10-14T15:53:54.426Z,11.00
2022-10-14T15:56:24.209Z,9.83
2022-10-14T15:58:51.705Z,11.30
2022-10-14T16:01:21.995Z,9.73
2022-10-14T16:03:52.354Z,10.30
2022-10-14T16:06:22.617Z,11.53
2022-10-14T16:08:50.350Z,15.37
2022-10-14T16:11:29.167Z,10.03
2022-10-14T16:13:57.513Z,9.53
2022-10-14T16:16:37.516Z,13.00
2022-10-14T16:19:07.308Z,13.27
2022-10-14T16:21:35.008Z,10.37
2022-10-14T16:24:03.695Z,8.60
2022-10-14T16:26:33.385Z,11.40
2022-10-14T16:29:03.733Z,9.87
2022-10-14T16:31:32.629Z,11.83
2022-10-14T16:34:01.908Z,10.23
2022-10-14T16:36:29.926Z,12.17
2022-10-14T16:39:00.492Z,11.17
2022-10-14T16:41:30.948Z,9.33
2022-10-14T16:43:59.816Z,11.60
2022-10-14T16:46:47.116Z,9.53
2022-10-14T16:49:15.720Z,10.83
2022-10-14T16:51:45.899Z,11.60
2022-10-14T16:54:14.070Z,10.63
2022-10-14T16:56:54.415Z,10.97
2022-10-14T16:59:23.477Z,13.77
2022-10-14T17:01:52.024Z,12.60
2022-10-14T17:04:20.300Z,13.30
2022-10-14T17:06:48.487Z,11.23
2022-10-14T17:09:18.738Z,10.90
2022-10-14T17:11:47.737Z,11.63
2022-10-14T17:14:18.333Z,11.70
2022-10-14T17:16:50.417Z,15.33
2022-10-14T17:19:20.285Z,12.67
2022-10-14T17:21:49.110Z,11.70
2022-10-14T17:24:17.021Z,12.67
2022-10-14T17:26:45.669Z,11.77
2022-10-14T17:29:14.651Z,17.17
2022-10-14T17:31:42.477Z,8.40
2022-10-14T17:34:11.541Z,12.80
2022-10-14T17:36:41.676Z,11.83
2022-10-14T17:39:18.660Z,13.20
2022-10-14T17:41:52.749Z,12.70
2022-10-14T17:44:20.306Z,14.27
2022-10-14T17:46:48.797Z,16.23
2022-10-14T17:49:16.653Z,14.73
2022-10-14T17:51:45.078Z,14.90
2022-10-14T17:54:13.034Z,10.90
2022-10-14T17:56:43.082Z,17.43
2022-10-14T17:59:14.283Z,16.97
2022-10-14T18:02:02.799Z,15.63
2022-10-14T18:04:32.641Z,11.57
2022-10-14T18:07:02.077Z,16.87
2022-10-14T18:09:30.402Z,15.53
2022-10-14T18:12:13.458Z,16.53
2022-10-14T18:14:42.576Z,12.97
2022-10-14T18:17:12.492Z,16.33
2022-10-14T18:19:42.020Z,17.07
2022-10-14T18:22:11.206Z,15.77
2022-10-14T18:24:40.745Z,13.20
2022-10-14T18:27:09.043Z,15.07
2022-10-14T18:29:38.561Z,17.03
2022-10-14T18:32:06.571Z,18.53
2022-10-14T18:34:35.023Z,15.03
2022-10-14T18:37:03.442Z,16.97
2022-10-14T18:39:31.053Z,15.37
2022-10-14T18:41:59.398Z,15.00
2022-10-14T18:44:26.282Z,10.77
2022-10-14T18:46:55.053Z,12.70
2022-10-14T18:49:23.310Z,15.13
2022-10-14T18:51:53.173Z,18.33
2022-10-14T18:54:24.773Z,14.87
2022-10-14T18:56:54.898Z,13.37
2022-10-14T18:59:23.841Z,13.60
2022-10-14T19:01:53.270Z,12.83
2022-10-14T19:04:25.666Z,16.07
2022-10-14T19:06:53.867Z,16.80
2022-10-14T19:09:24.861Z,13.40
2022-10-14T19:11:53.127Z,11.83
2022-10-14T19:14:22.539Z,10.80
2022-10-14T19:16:50.406Z,12.13
2022-10-14T19:19:20.163Z,10.40
2022-10-14T19:21:54.148Z,11.43
2022-10-14T19:24:22.037Z,11.67
2022-10-14T19:26:50.231Z,13.27
2022-10-14T19:29:18.798Z,10.10
2022-10-14T19:31:46.581Z,12.67
2022-10-14T19:34:15.940Z,12.47
2022-10-14T19:36:44.810Z,9.27
2022-10-14T19:39:16.453Z,12.27
2022-10-14T19:41:47.349Z,9.70
2022-10-14T19:44:16.694Z,12.77
2022-10-14T19:46:45.810Z,13.93
2022-10-14T19:49:14.673Z,11.53
2022-10-14T19:51:42.507Z,12.20
2022-10-14T19:54:12.398Z,10.20
2022-10-14T19:56:42.047Z,10.00
2022-10-14T19:59:10.746Z,10.63
2022-10-14T20:01:39.102Z,8.20
2022-10-14T20:04:07.142Z,11.53
2022-10-14T20:06:37.800Z,8.73
2022-10-14T20:09:07.285Z,12.47
2022-10-14T20:11:35.989Z,10.57
2022-10-14T20:14:03.733Z,11.30
2022-10-14T20:16:30.714Z,8.00
2022-10-14T20:18:58.502Z,10.33
2022-10-14T20:21:26.464Z,9.80
2022-10-14T20:23:53.349Z,8.87
2022-10-14T20:26:22.723Z,8.60
2022-10-14T20:28:50.515Z,7.03
2022-10-14T20:31:20.809Z,14.27
2022-10-14T20:33:48.829Z,7.93
2022-10-14T20:36:19.779Z,7.83
2022-10-14T20:38:48.137Z,8.10
2022-10-14T20:41:17.772Z,11.57
2022-10-14T20:43:48.098Z,7.23
2022-10-14T20:46:17.635Z,9.53
2022-10-14T20:48:45.863Z,6.90
2022-10-14T20:51:17.914Z,6.00
2022-10-14T20:53:45.597Z,8.03
2022-10-14T20:56:14.719Z,9.73
2022-10-14T20:58:43.209Z,6.80
2022-10-14T21:01:15.897Z,6.63
2022-10-14T21:03:46.130Z,7.27
2022-10-14T21:06:18.447Z,8.07
2022-10-14T21:08:49.486Z,7.03
2022-10-14T21:11:23.281Z,8.97
2022-10-14T21:13:54.165Z,7.80
2022-10-14T21:16:31.188Z,8.33
2022-10-14T21:19:02.899Z,5.20
2022-10-14T21:21:45.397Z,7.37
2022-10-14T21:24:16.858Z,8.27
2022-10-14T21:26:51.837Z,6.80
2022-10-14T21:29:21.597Z,7.53
2022-10-14T21:31:49.654Z,7.33
2022-10-14T21:34:18.403Z,6.83
2022-10-14T21:36:45.338Z,7.33
2022-10-14T21:39:18.350Z,9.80
2022-10-14T21:41:46.829Z,5.63
2022-10-14T21:44:17.836Z,7.40
2022-10-14T21:46:46.861Z,7.93
2022-10-14T21:49:16.079Z,12.57
2022-10-14T21:51:44.438Z,8.33
2022-10-14T21:54:12.797Z,9.50
2022-10-14T21:56:40.387Z,9.93
2022-10-14T21:59:07.505Z,8.60
2022-10-14T22:01:36.533Z,8.70
2022-10-14T22:04:05.865Z,6.73
2022-10-14T22:06:35.428Z,7.10
2022-10-14T22:09:06.218Z,9.43
2022-10-14T22:11:38.017Z,6.30
2022-10-14T22:14:07.755Z,7.77
2022-10-14T22:16:36.299Z,6.37
2022-10-14T22:19:06.776Z,6.53
2022-10-14T22:21:36.548Z,8.73
2022-10-14T22:24:05.487Z,8.33
2022-10-14T22:26:33.297Z,8.33
2022-10-14T22:29:08.654Z,8.33
2022-10-14T22:31:36.402Z,9.17
2022-10-14T22:34:05.490Z,10.53
2022-10-14T22:36:34.004Z,8.83
2022-10-14T22:39:07.250Z,8.03
2022-10-14T22:41:35.855Z,9.57
2022-10-14T22:44:05.809Z,8.63
2022-10-14T22:46:36.171Z,13.03
2022-10-14T22:49:05.358Z,11.50
2022-10-14T22:51:35.874Z,14.57
2022-10-14T22:54:04.552Z,12.90
2022-10-14T22:56:32.781Z,10.97
2022-10-14T22:59:03.604Z,11.60
2022-10-14T23:01:32.236Z,11.27
2022-10-14T23:04:00.738Z,12.43
2022-10-14T23:06:29.338Z,10.50
2022-10-14T23:09:00.433Z,10.77
2022-10-14T23:11:31.358Z,12.47
2022-10-14T23:14:02.814Z,9.53
2022-10-14T23:16:34.418Z,9.30
2022-10-14T23:19:03.136Z,8.87
2022-10-14T23:21:33.216Z,9.33
2022-10-14T23:24:03.035Z,9.20
2022-10-14T23:26:37.074Z,11.27
2022-10-14T23:29:08.238Z,10.00
2022-10-14T23:31:37.826Z,11.83
2022-10-14T23:34:10.928Z,11.43
2022-10-14T23:36:39.984Z,8.10
2022-10-14T23:39:09.059Z,9.57
2022-10-14T23:41:38.095Z,11.60
2022-10-14T23:44:07.253Z,8.43
2022-10-14T23:46:34.774Z,8.77
2022-10-14T23:49:36.922Z,7.77
2022-10-14T23:51:51.797Z,10.77
2022-10-14T23:54:19.324Z,10.17
2022-10-14T23:56:46.922Z,8.50
2022-10-14T23:59:14.563Z,8.80
